sensor_id;sensor_type;location;lat;lon;timestamp;P1;durP1;ratioP1;P2;durP2;ratioP2
46222;SDS011;31943;51.410;7.564;2023-04-25T00:00:45;13.63;;;5.88;;
46222;SDS011;31943;51.410;7.564;2023-04-25T00:03:12;14.15;;;5.68;;
46222;SDS011;31943;51.410;7.564;2023-04-25T00:05:38;13.75;;;5.47;;
46222;SDS011;31943;51.410;7.564;2023-04-25T00:08:05;11.88;;;4.97;;
46222;SDS011;31943;51.410;7.564;2023-04-25T00:10:30;15.43;;;5.60;;
46222;SDS011;31943;51.410;7.564;2023-04-25T00:12:56;12.57;;;5.45;;
46222;SDS011;31943;51.410;7.564;2023-04-25T00:15:22;17.27;;;6.03;;
46222;SDS011;31943;51.410;7.564;2023-04-25T00:17:47;15.30;;;5.75;;
46222;SDS011;31943;51.410;7.564;2023-04-25T00:20:13;12.35;;;5.43;;
46222;SDS011;31943;51.410;7.564;2023-04-25T00:22:38;13.20;;;5.50;;
46222;SDS011;31943;51.410;7.564;2023-04-25T00:25:06;15.02;;;5.20;;
46222;SDS011;31943;51.410;7.564;2023-04-25T00:27:32;11.20;;;4.97;;
46222;SDS011;31943;51.410;7.564;2023-04-25T00:29:57;11.13;;;4.82;;
46222;SDS011;31943;51.410;7.564;2023-04-25T00:32:23;11.57;;;5.60;;
46222;SDS011;31943;51.410;7.564;2023-04-25T00:34:49;13.30;;;5.60;;
46222;SDS011;31943;51.410;7.564;2023-04-25T00:37:14;14.85;;;5.82;;
46222;SDS011;31943;51.410;7.564;2023-04-25T00:39:40;17.70;;;5.85;;
46222;SDS011;31943;51.410;7.564;2023-04-25T00:42:07;17.08;;;6.05;;
46222;SDS011;31943;51.410;7.564;2023-04-25T00:44:33;9.50;;;5.25;;
46222;SDS011;31943;51.410;7.564;2023-04-25T00:47:01;14.02;;;6.40;;
46222;SDS011;31943;51.410;7.564;2023-04-25T00:49:27;13.32;;;5.43;;
46222;SDS011;31943;51.410;7.564;2023-04-25T00:51:52;13.75;;;5.63;;
46222;SDS011;31943;51.410;7.564;2023-04-25T00:54:19;12.90;;;6.32;;
46222;SDS011;31943;51.410;7.564;2023-04-25T00:56:45;10.10;;;5.60;;
46222;SDS011;31943;51.410;7.564;2023-04-25T00:59:12;11.20;;;6.45;;
46222;SDS011;31943;51.410;7.564;2023-04-25T01:01:38;11.77;;;6.57;;
46222;SDS011;31943;51.410;7.564;2023-04-25T01:04:04;11.95;;;6.30;;
46222;SDS011;31943;51.410;7.564;2023-04-25T01:06:30;13.90;;;6.30;;
46222;SDS011;31943;51.410;7.564;2023-04-25T01:08:56;13.15;;;6.57;;
46222;SDS011;31943;51.410;7.564;2023-04-25T01:11:22;13.48;;;8.27;;
46222;SDS011;31943;51.410;7.564;2023-04-25T01:13:48;16.85;;;7.70;;
46222;SDS011;31943;51.410;7.564;2023-04-25T01:16:15;14.40;;;8.45;;
46222;SDS011;31943;51.410;7.564;2023-04-25T01:18:43;14.35;;;8.10;;
46222;SDS011;31943;51.410;7.564;2023-04-25T01:21:12;16.25;;;8.65;;
46222;SDS011;31943;51.410;7.564;2023-04-25T01:23:40;14.70;;;8.65;;
46222;SDS011;31943;51.410;7.564;2023-04-25T01:26:06;14.88;;;7.47;;
46222;SDS011;31943;51.410;7.564;2023-04-25T01:28:33;15.05;;;7.75;;
46222;SDS011;31943;51.410;7.564;2023-04-25T01:30:59;10.35;;;7.90;;
46222;SDS011;31943;51.410;7.564;2023-04-25T01:33:26;15.40;;;7.80;;
46222;SDS011;31943;51.410;7.564;2023-04-25T01:35:52;14.38;;;8.43;;
46222;SDS011;31943;51.410;7.564;2023-04-25T01:38:20;13.38;;;7.85;;
46222;SDS011;31943;51.410;7.564;2023-04-25T01:40:45;16.05;;;7.75;;
46222;SDS011;31943;51.410;7.564;2023-04-25T01:43:11;12.68;;;8.55;;
46222;SDS011;31943;51.410;7.564;2023-04-25T01:45:37;15.23;;;8.82;;
46222;SDS011;31943;51.410;7.564;2023-04-25T01:48:03;16.95;;;8.70;;
46222;SDS011;31943;51.410;7.564;2023-04-25T01:50:28;12.35;;;8.48;;
46222;SDS011;31943;51.410;7.564;2023-04-25T01:52:54;19.27;;;9.82;;
46222;SDS011;31943;51.410;7.564;2023-04-25T01:55:22;17.23;;;9.23;;
46222;SDS011;31943;51.410;7.564;2023-04-25T01:57:47;15.30;;;9.82;;
46222;SDS011;31943;51.410;7.564;2023-04-25T02:00:13;16.85;;;9.90;;
46222;SDS011;31943;51.410;7.564;2023-04-25T02:02:39;15.63;;;9.75;;
46222;SDS011;31943;51.410;7.564;2023-04-25T02:05:05;18.67;;;9.65;;
46222;SDS011;31943;51.410;7.564;2023-04-25T02:07:31;16.52;;;10.13;;
46222;SDS011;31943;51.410;7.564;2023-04-25T02:09:57;15.55;;;9.43;;
46222;SDS011;31943;51.410;7.564;2023-04-25T02:12:24;14.50;;;9.65;;
46222;SDS011;31943;51.410;7.564;2023-04-25T02:14:50;12.93;;;9.35;;
46222;SDS011;31943;51.410;7.564;2023-04-25T02:17:15;12.98;;;9.50;;
46222;SDS011;31943;51.410;7.564;2023-04-25T02:19:41;15.93;;;9.43;;
46222;SDS011;31943;51.410;7.564;2023-04-25T02:22:06;15.32;;;9.88;;
46222;SDS011;31943;51.410;7.564;2023-04-25T02:24:32;13.30;;;9.35;;
46222;SDS011;31943;51.410;7.564;2023-04-25T02:26:58;21.20;;;10.55;;
46222;SDS011;31943;51.410;7.564;2023-04-25T02:29:25;12.73;;;9.20;;
46222;SDS011;31943;51.410;7.564;2023-04-25T02:31:50;13.70;;;8.77;;
46222;SDS011;31943;51.410;7.564;2023-04-25T02:34:16;14.52;;;9.27;;
46222;SDS011;31943;51.410;7.564;2023-04-25T02:36:42;16.77;;;9.38;;
46222;SDS011;31943;51.410;7.564;2023-04-25T02:39:08;14.88;;;9.25;;
46222;SDS011;31943;51.410;7.564;2023-04-25T02:41:34;12.65;;;9.02;;
46222;SDS011;31943;51.410;7.564;2023-04-25T02:44:00;15.70;;;9.15;;
46222;SDS011;31943;51.410;7.564;2023-04-25T02:46:27;14.10;;;9.82;;
46222;SDS011;31943;51.410;7.564;2023-04-25T02:48:53;12.02;;;8.82;;
46222;SDS011;31943;51.410;7.564;2023-04-25T02:51:19;15.70;;;10.50;;
46222;SDS011;31943;51.410;7.564;2023-04-25T02:53:44;17.45;;;10.52;;
46222;SDS011;31943;51.410;7.564;2023-04-25T02:56:10;16.77;;;10.82;;
46222;SDS011;31943;51.410;7.564;2023-04-25T02:58:35;17.73;;;11.93;;
46222;SDS011;31943;51.410;7.564;2023-04-25T03:01:01;17.35;;;13.23;;
46222;SDS011;31943;51.410;7.564;2023-04-25T03:03:28;18.58;;;14.05;;
46222;SDS011;31943;51.410;7.564;2023-04-25T03:05:54;23.25;;;14.18;;
46222;SDS011;31943;51.410;7.564;2023-04-25T03:08:19;21.70;;;14.57;;
46222;SDS011;31943;51.410;7.564;2023-04-25T03:10:45;24.30;;;15.15;;
46222;SDS011;31943;51.410;7.564;2023-04-25T03:13:11;28.52;;;15.75;;
46222;SDS011;31943;51.410;7.564;2023-04-25T03:15:36;29.40;;;16.08;;
46222;SDS011;31943;51.410;7.564;2023-04-25T03:18:02;23.60;;;16.33;;
46222;SDS011;31943;51.410;7.564;2023-04-25T03:20:30;26.88;;;18.15;;
46222;SDS011;31943;51.410;7.564;2023-04-25T03:22:55;20.83;;;14.45;;
46222;SDS011;31943;51.410;7.564;2023-04-25T03:25:21;22.75;;;14.35;;
46222;SDS011;31943;51.410;7.564;2023-04-25T03:27:47;19.35;;;13.27;;
46222;SDS011;31943;51.410;7.564;2023-04-25T03:30:12;19.40;;;13.73;;
46222;SDS011;31943;51.410;7.564;2023-04-25T03:32:38;17.77;;;13.02;;
46222;SDS011;31943;51.410;7.564;2023-04-25T03:35:04;18.45;;;13.10;;
46222;SDS011;31943;51.410;7.564;2023-04-25T03:37:31;16.83;;;12.27;;
46222;SDS011;31943;51.410;7.564;2023-04-25T03:39:57;20.13;;;12.75;;
46222;SDS011;31943;51.410;7.564;2023-04-25T03:42:23;16.90;;;11.38;;
46222;SDS011;31943;51.410;7.564;2023-04-25T03:44:48;20.17;;;12.38;;
46222;SDS011;31943;51.410;7.564;2023-04-25T03:47:15;17.08;;;10.88;;
46222;SDS011;31943;51.410;7.564;2023-04-25T03:49:41;18.13;;;11.00;;
46222;SDS011;31943;51.410;7.564;2023-04-25T03:52:07;20.80;;;12.35;;
46222;SDS011;31943;51.410;7.564;2023-04-25T03:54:34;18.73;;;11.15;;
46222;SDS011;31943;51.410;7.564;2023-04-25T03:57:00;22.23;;;12.43;;
46222;SDS011;31943;51.410;7.564;2023-04-25T03:59:25;19.10;;;11.68;;
46222;SDS011;31943;51.410;7.564;2023-04-25T04:01:51;15.50;;;10.82;;
46222;SDS011;31943;51.410;7.564;2023-04-25T04:04:16;20.45;;;10.90;;
46222;SDS011;31943;51.410;7.564;2023-04-25T04:06:42;18.45;;;10.88;;
46222;SDS011;31943;51.410;7.564;2023-04-25T04:09:08;17.23;;;10.20;;
46222;SDS011;31943;51.410;7.564;2023-04-25T04:11:36;17.50;;;8.98;;
46222;SDS011;31943;51.410;7.564;2023-04-25T04:14:03;22.10;;;9.30;;
46222;SDS011;31943;51.410;7.564;2023-04-25T04:16:28;16.83;;;8.82;;
46222;SDS011;31943;51.410;7.564;2023-04-25T04:18:54;15.85;;;8.30;;
46222;SDS011;31943;51.410;7.564;2023-04-25T04:21:19;16.55;;;8.73;;
46222;SDS011;31943;51.410;7.564;2023-04-25T04:23:45;12.52;;;7.70;;
46222;SDS011;31943;51.410;7.564;2023-04-25T04:26:11;18.45;;;8.48;;
46222;SDS011;31943;51.410;7.564;2023-04-25T04:28:38;15.57;;;8.35;;
46222;SDS011;31943;51.410;7.564;2023-04-25T04:31:03;22.30;;;8.70;;
46222;SDS011;31943;51.410;7.564;2023-04-25T04:33:29;19.42;;;9.02;;
46222;SDS011;31943;51.410;7.564;2023-04-25T04:35:55;15.60;;;8.48;;
46222;SDS011;31943;51.410;7.564;2023-04-25T04:38:21;18.55;;;9.07;;
46222;SDS011;31943;51.410;7.564;2023-04-25T04:40:46;16.73;;;7.65;;
46222;SDS011;31943;51.410;7.564;2023-04-25T04:43:11;8.23;;;5.57;;
46222;SDS011;31943;51.410;7.564;2023-04-25T04:45:38;6.78;;;3.10;;
46222;SDS011;31943;51.410;7.564;2023-04-25T04:48:04;7.93;;;2.70;;
46222;SDS011;31943;51.410;7.564;2023-04-25T04:50:30;4.60;;;2.17;;
46222;SDS011;31943;51.410;7.564;2023-04-25T04:52:56;9.63;;;2.88;;
46222;SDS011;31943;51.410;7.564;2023-04-25T04:55:22;10.48;;;3.33;;
46222;SDS011;31943;51.410;7.564;2023-04-25T04:57:47;7.70;;;2.90;;
46222;SDS011;31943;51.410;7.564;2023-04-25T05:00:13;7.60;;;2.38;;
46222;SDS011;31943;51.410;7.564;2023-04-25T05:02:41;5.85;;;2.67;;
46222;SDS011;31943;51.410;7.564;2023-04-25T05:05:07;8.57;;;2.63;;
46222;SDS011;31943;51.410;7.564;2023-04-25T05:07:33;11.27;;;3.45;;
46222;SDS011;31943;51.410;7.564;2023-04-25T05:10:01;8.88;;;2.60;;
46222;SDS011;31943;51.410;7.564;2023-04-25T05:12:28;7.90;;;2.67;;
46222;SDS011;31943;51.410;7.564;2023-04-25T05:14:54;9.15;;;3.05;;
46222;SDS011;31943;51.410;7.564;2023-04-25T05:17:20;7.35;;;3.00;;
46222;SDS011;31943;51.410;7.564;2023-04-25T05:19:50;6.28;;;2.90;;
46222;SDS011;31943;51.410;7.564;2023-04-25T05:22:16;6.88;;;2.50;;
46222;SDS011;31943;51.410;7.564;2023-04-25T05:24:42;4.93;;;2.20;;
46222;SDS011;31943;51.410;7.564;2023-04-25T05:27:08;6.60;;;2.28;;
46222;SDS011;31943;51.410;7.564;2023-04-25T05:29:33;6.47;;;2.42;;
46222;SDS011;31943;51.410;7.564;2023-04-25T05:31:59;5.00;;;2.22;;
46222;SDS011;31943;51.410;7.564;2023-04-25T05:34:24;6.47;;;2.35;;
46222;SDS011;31943;51.410;7.564;2023-04-25T05:36:51;6.60;;;2.15;;
46222;SDS011;31943;51.410;7.564;2023-04-25T05:39:17;6.25;;;2.78;;
46222;SDS011;31943;51.410;7.564;2023-04-25T05:41:43;9.85;;;2.97;;
46222;SDS011;31943;51.410;7.564;2023-04-25T05:44:08;11.40;;;2.90;;
46222;SDS011;31943;51.410;7.564;2023-04-25T05:46:34;12.15;;;3.22;;
46222;SDS011;31943;51.410;7.564;2023-04-25T05:48:59;6.97;;;2.90;;
46222;SDS011;31943;51.410;7.564;2023-04-25T05:51:25;9.15;;;2.70;;
46222;SDS011;31943;51.410;7.564;2023-04-25T05:53:53;8.75;;;2.85;;
46222;SDS011;31943;51.410;7.564;2023-04-25T05:56:18;6.88;;;3.05;;
46222;SDS011;31943;51.410;7.564;2023-04-25T05:58:44;9.65;;;3.03;;
46222;SDS011;31943;51.410;7.564;2023-04-25T06:01:10;10.23;;;3.17;;
46222;SDS011;31943;51.410;7.564;2023-04-25T06:03:35;9.32;;;3.45;;
46222;SDS011;31943;51.410;7.564;2023-04-25T06:06:01;9.60;;;3.22;;
46222;SDS011;31943;51.410;7.564;2023-04-25T06:08:29;11.77;;;3.45;;
46222;SDS011;31943;51.410;7.564;2023-04-25T06:10:58;6.00;;;3.00;;
46222;SDS011;31943;51.410;7.564;2023-04-25T06:13:23;10.32;;;3.47;;
46222;SDS011;31943;51.410;7.564;2023-04-25T06:15:49;12.55;;;3.85;;
46222;SDS011;31943;51.410;7.564;2023-04-25T06:18:15;9.50;;;3.58;;
46222;SDS011;31943;51.410;7.564;2023-04-25T06:20:41;11.40;;;3.80;;
46222;SDS011;31943;51.410;7.564;2023-04-25T06:23:07;9.60;;;3.67;;
46222;SDS011;31943;51.410;7.564;2023-04-25T06:25:32;10.13;;;4.38;;
46222;SDS011;31943;51.410;7.564;2023-04-25T06:28:00;15.77;;;4.90;;
46222;SDS011;31943;51.410;7.564;2023-04-25T06:30:25;13.55;;;4.53;;
46222;SDS011;31943;51.410;7.564;2023-04-25T06:32:51;13.82;;;5.00;;
46222;SDS011;31943;51.410;7.564;2023-04-25T06:35:17;13.95;;;5.13;;
46222;SDS011;31943;51.410;7.564;2023-04-25T06:37:43;12.52;;;5.40;;
46222;SDS011;31943;51.410;7.564;2023-04-25T06:40:09;12.27;;;5.55;;
46222;SDS011;31943;51.410;7.564;2023-04-25T06:42:35;15.57;;;5.65;;
46222;SDS011;31943;51.410;7.564;2023-04-25T06:45:02;19.05;;;7.88;;
46222;SDS011;31943;51.410;7.564;2023-04-25T06:47:28;14.45;;;5.95;;
46222;SDS011;31943;51.410;7.564;2023-04-25T06:49:54;13.10;;;6.07;;
46222;SDS011;31943;51.410;7.564;2023-04-25T06:52:20;14.02;;;5.65;;
46222;SDS011;31943;51.410;7.564;2023-04-25T06:54:46;14.55;;;6.00;;
46222;SDS011;31943;51.410;7.564;2023-04-25T06:57:11;13.80;;;6.05;;
46222;SDS011;31943;51.410;7.564;2023-04-25T06:59:37;17.63;;;6.72;;
46222;SDS011;31943;51.410;7.564;2023-04-25T07:02:04;16.17;;;7.40;;
46222;SDS011;31943;51.410;7.564;2023-04-25T07:04:30;15.27;;;6.53;;
46222;SDS011;31943;51.410;7.564;2023-04-25T07:06:56;16.40;;;6.32;;
46222;SDS011;31943;51.410;7.564;2023-04-25T07:09:22;14.93;;;6.05;;
46222;SDS011;31943;51.410;7.564;2023-04-25T07:11:48;19.30;;;6.35;;
46222;SDS011;31943;51.410;7.564;2023-04-25T07:14:13;11.60;;;4.63;;
46222;SDS011;31943;51.410;7.564;2023-04-25T07:16:39;17.48;;;6.13;;
46222;SDS011;31943;51.410;7.564;2023-04-25T07:19:06;19.17;;;6.03;;
46222;SDS011;31943;51.410;7.564;2023-04-25T07:21:31;13.85;;;6.00;;
46222;SDS011;31943;51.410;7.564;2023-04-25T07:23:57;18.38;;;5.97;;
46222;SDS011;31943;51.410;7.564;2023-04-25T07:26:23;13.45;;;5.50;;
46222;SDS011;31943;51.410;7.564;2023-04-25T07:28:48;17.80;;;5.38;;
46222;SDS011;31943;51.410;7.564;2023-04-25T07:31:14;14.05;;;4.60;;
46222;SDS011;31943;51.410;7.564;2023-04-25T07:33:39;12.45;;;4.40;;
46222;SDS011;31943;51.410;7.564;2023-04-25T07:36:07;12.93;;;4.07;;
46222;SDS011;31943;51.410;7.564;2023-04-25T07:38:33;12.63;;;3.65;;
46222;SDS011;31943;51.410;7.564;2023-04-25T07:40:59;13.38;;;3.55;;
46222;SDS011;31943;51.410;7.564;2023-04-25T07:43:24;10.95;;;3.33;;
46222;SDS011;31943;51.410;7.564;2023-04-25T07:45:50;12.68;;;3.58;;
46222;SDS011;31943;51.410;7.564;2023-04-25T07:48:16;13.35;;;2.95;;
46222;SDS011;31943;51.410;7.564;2023-04-25T07:50:42;10.63;;;2.83;;
46222;SDS011;31943;51.410;7.564;2023-04-25T07:53:09;12.20;;;2.97;;
46222;SDS011;31943;51.410;7.564;2023-04-25T07:55:35;16.35;;;3.22;;
46222;SDS011;31943;51.410;7.564;2023-04-25T07:58:00;12.15;;;3.45;;
46222;SDS011;31943;51.410;7.564;2023-04-25T08:00:26;23.15;;;4.00;;
46222;SDS011;31943;51.410;7.564;2023-04-25T08:02:52;11.65;;;3.20;;
46222;SDS011;31943;51.410;7.564;2023-04-25T08:05:17;14.13;;;2.90;;
46222;SDS011;31943;51.410;7.564;2023-04-25T08:07:43;9.82;;;2.80;;
46222;SDS011;31943;51.410;7.564;2023-04-25T08:10:10;15.75;;;3.38;;
46222;SDS011;31943;51.410;7.564;2023-04-25T08:12:36;14.70;;;4.13;;
46222;SDS011;31943;51.410;7.564;2023-04-25T08:15:02;14.90;;;3.33;;
46222;SDS011;31943;51.410;7.564;2023-04-25T08:17:28;11.85;;;3.35;;
46222;SDS011;31943;51.410;7.564;2023-04-25T08:19:54;11.43;;;3.55;;
46222;SDS011;31943;51.410;7.564;2023-04-25T08:22:19;12.10;;;3.38;;
46222;SDS011;31943;51.410;7.564;2023-04-25T08:24:45;10.55;;;2.85;;
46222;SDS011;31943;51.410;7.564;2023-04-25T08:27:12;10.30;;;3.17;;
46222;SDS011;31943;51.410;7.564;2023-04-25T08:29:38;9.88;;;2.47;;
46222;SDS011;31943;51.410;7.564;2023-04-25T08:32:04;12.60;;;2.78;;
46222;SDS011;31943;51.410;7.564;2023-04-25T08:34:29;11.00;;;3.17;;
46222;SDS011;31943;51.410;7.564;2023-04-25T08:36:55;11.30;;;2.85;;
46222;SDS011;31943;51.410;7.564;2023-04-25T08:39:21;11.10;;;2.75;;
46222;SDS011;31943;51.410;7.564;2023-04-25T08:41:46;10.80;;;2.85;;
46222;SDS011;31943;51.410;7.564;2023-04-25T08:44:14;13.40;;;3.55;;
46222;SDS011;31943;51.410;7.564;2023-04-25T08:46:40;16.33;;;2.92;;
46222;SDS011;31943;51.410;7.564;2023-04-25T08:49:06;12.43;;;2.53;;
46222;SDS011;31943;51.410;7.564;2023-04-25T08:51:32;9.55;;;2.83;;
46222;SDS011;31943;51.410;7.564;2023-04-25T08:54:02;11.57;;;3.08;;
46222;SDS011;31943;51.410;7.564;2023-04-25T08:56:34;8.10;;;2.88;;
46222;SDS011;31943;51.410;7.564;2023-04-25T08:59:00;9.73;;;2.75;;
46222;SDS011;31943;51.410;7.564;2023-04-25T09:01:28;10.70;;;3.03;;
46222;SDS011;31943;51.410;7.564;2023-04-25T09:03:54;15.68;;;2.63;;
46222;SDS011;31943;51.410;7.564;2023-04-25T09:06:19;11.00;;;2.60;;
46222;SDS011;31943;51.410;7.564;2023-04-25T09:08:46;13.25;;;2.58;;
46222;SDS011;31943;51.410;7.564;2023-04-25T09:11:15;11.27;;;2.08;;
46222;SDS011;31943;51.410;7.564;2023-04-25T09:13:40;7.70;;;2.47;;
46222;SDS011;31943;51.410;7.564;2023-04-25T09:16:06;5.53;;;1.90;;
46222;SDS011;31943;51.410;7.564;2023-04-25T09:18:34;7.45;;;1.90;;
46222;SDS011;31943;51.410;7.564;2023-04-25T09:21:04;9.50;;;2.03;;
46222;SDS011;31943;51.410;7.564;2023-04-25T09:23:38;8.07;;;2.58;;
46222;SDS011;31943;51.410;7.564;2023-04-25T09:26:05;5.40;;;1.75;;
46222;SDS011;31943;51.410;7.564;2023-04-25T09:28:32;10.35;;;2.50;;
46222;SDS011;31943;51.410;7.564;2023-04-25T09:30:58;6.70;;;2.40;;
46222;SDS011;31943;51.410;7.564;2023-04-25T09:33:27;8.40;;;1.98;;
46222;SDS011;31943;51.410;7.564;2023-04-25T09:36:03;10.57;;;2.67;;
46222;SDS011;31943;51.410;7.564;2023-04-25T09:38:30;8.73;;;1.80;;
46222;SDS011;31943;51.410;7.564;2023-04-25T09:40:56;8.93;;;2.13;;
46222;SDS011;31943;51.410;7.564;2023-04-25T09:43:22;8.10;;;1.75;;
46222;SDS011;31943;51.410;7.564;2023-04-25T09:45:49;7.45;;;2.22;;
46222;SDS011;31943;51.410;7.564;2023-04-25T09:48:16;7.45;;;1.80;;
46222;SDS011;31943;51.410;7.564;2023-04-25T09:50:42;9.02;;;2.10;;
46222;SDS011;31943;51.410;7.564;2023-04-25T09:53:10;8.45;;;1.75;;
46222;SDS011;31943;51.410;7.564;2023-04-25T09:55:35;7.45;;;1.50;;
46222;SDS011;31943;51.410;7.564;2023-04-25T09:58:03;11.00;;;1.83;;
46222;SDS011;31943;51.410;7.564;2023-04-25T10:00:30;7.53;;;1.50;;
46222;SDS011;31943;51.410;7.564;2023-04-25T10:02:57;4.20;;;1.58;;
46222;SDS011;31943;51.410;7.564;2023-04-25T10:05:25;4.63;;;1.60;;
46222;SDS011;31943;51.410;7.564;2023-04-25T10:07:53;4.30;;;1.50;;
46222;SDS011;31943;51.410;7.564;2023-04-25T10:10:21;4.85;;;1.38;;
46222;SDS011;31943;51.410;7.564;2023-04-25T10:12:49;4.60;;;1.65;;
46222;SDS011;31943;51.410;7.564;2023-04-25T10:15:15;5.15;;;1.90;;
46222;SDS011;31943;51.410;7.564;2023-04-25T10:17:40;6.40;;;1.52;;
46222;SDS011;31943;51.410;7.564;2023-04-25T10:20:07;6.68;;;1.75;;
46222;SDS011;31943;51.410;7.564;2023-04-25T10:22:34;8.38;;;2.15;;
46222;SDS011;31943;51.410;7.564;2023-04-25T10:25:02;10.77;;;2.45;;
46222;SDS011;31943;51.410;7.564;2023-04-25T10:27:30;6.43;;;1.80;;
46222;SDS011;31943;51.410;7.564;2023-04-25T10:30:06;8.25;;;1.90;;
46222;SDS011;31943;51.410;7.564;2023-04-25T10:32:33;8.52;;;2.30;;
46222;SDS011;31943;51.410;7.564;2023-04-25T10:35:09;4.90;;;1.88;;
46222;SDS011;31943;51.410;7.564;2023-04-25T10:37:36;5.50;;;1.08;;
46222;SDS011;31943;51.410;7.564;2023-04-25T10:40:07;4.65;;;1.13;;
46222;SDS011;31943;51.410;7.564;2023-04-25T10:42:36;4.70;;;1.27;;
46222;SDS011;31943;51.410;7.564;2023-04-25T10:45:02;5.43;;;1.30;;
46222;SDS011;31943;51.410;7.564;2023-04-25T10:47:34;5.32;;;1.13;;
46222;SDS011;31943;51.410;7.564;2023-04-25T10:50:04;6.20;;;1.30;;
46222;SDS011;31943;51.410;7.564;2023-04-25T10:52:32;7.75;;;0.98;;
46222;SDS011;31943;51.410;7.564;2023-04-25T10:54:58;8.02;;;1.48;;
46222;SDS011;31943;51.410;7.564;2023-04-25T10:57:27;7.35;;;1.08;;
46222;SDS011;31943;51.410;7.564;2023-04-25T11:00:04;3.78;;;1.45;;
46222;SDS011;31943;51.410;7.564;2023-04-25T11:02:31;6.35;;;1.13;;
46222;SDS011;31943;51.410;7.564;2023-04-25T11:05:01;5.53;;;1.00;;
46222;SDS011;31943;51.410;7.564;2023-04-25T11:07:30;4.07;;;1.38;;
46222;SDS011;31943;51.410;7.564;2023-04-25T11:10:02;2.85;;;0.88;;
46222;SDS011;31943;51.410;7.564;2023-04-25T11:12:29;4.20;;;1.33;;
46222;SDS011;31943;51.410;7.564;2023-04-25T11:14:58;5.43;;;1.35;;
46222;SDS011;31943;51.410;7.564;2023-04-25T11:17:26;4.45;;;1.23;;
46222;SDS011;31943;51.410;7.564;2023-04-25T11:19:53;3.58;;;1.15;;
46222;SDS011;31943;51.410;7.564;2023-04-25T11:22:19;8.18;;;1.42;;
46222;SDS011;31943;51.410;7.564;2023-04-25T11:24:46;3.78;;;1.38;;
46222;SDS011;31943;51.410;7.564;2023-04-25T11:27:12;5.93;;;1.45;;
46222;SDS011;31943;51.410;7.564;2023-04-25T11:29:38;5.60;;;1.40;;
46222;SDS011;31943;51.410;7.564;2023-04-25T11:32:04;5.25;;;1.52;;
46222;SDS011;31943;51.410;7.564;2023-04-25T11:34:32;4.57;;;1.50;;
46222;SDS011;31943;51.410;7.564;2023-04-25T11:36:59;8.25;;;1.45;;
46222;SDS011;31943;51.410;7.564;2023-04-25T11:39:25;3.90;;;0.95;;
46222;SDS011;31943;51.410;7.564;2023-04-25T11:41:51;9.07;;;1.52;;
46222;SDS011;31943;51.410;7.564;2023-04-25T11:44:17;5.93;;;1.50;;
46222;SDS011;31943;51.410;7.564;2023-04-25T11:46:43;4.90;;;1.38;;
46222;SDS011;31943;51.410;7.564;2023-04-25T11:49:09;5.57;;;1.48;;
46222;SDS011;31943;51.410;7.564;2023-04-25T11:51:39;3.15;;;1.20;;
46222;SDS011;31943;51.410;7.564;2023-04-25T11:54:05;3.70;;;1.10;;
46222;SDS011;31943;51.410;7.564;2023-04-25T11:56:30;5.40;;;1.40;;
46222;SDS011;31943;51.410;7.564;2023-04-25T11:58:57;6.72;;;1.40;;
46222;SDS011;31943;51.410;7.564;2023-04-25T12:01:27;4.47;;;1.00;;
46222;SDS011;31943;51.410;7.564;2023-04-25T12:03:54;5.85;;;1.73;;
46222;SDS011;31943;51.410;7.564;2023-04-25T12:06:19;5.35;;;1.10;;
46222;SDS011;31943;51.410;7.564;2023-04-25T12:09:00;3.88;;;1.40;;
46222;SDS011;31943;51.410;7.564;2023-04-25T12:13:52;4.93;;;1.30;;
46222;SDS011;31943;51.410;7.564;2023-04-25T12:16:17;3.97;;;1.00;;
46222;SDS011;31943;51.410;7.564;2023-04-25T12:18:43;6.43;;;1.27;;
46222;SDS011;31943;51.410;7.564;2023-04-25T12:21:09;3.20;;;1.23;;
46222;SDS011;31943;51.410;7.564;2023-04-25T12:23:34;3.65;;;1.00;;
46222;SDS011;31943;51.410;7.564;2023-04-25T12:26:06;4.43;;;1.25;;
46222;SDS011;31943;51.410;7.564;2023-04-25T12:28:32;4.18;;;1.10;;
46222;SDS011;31943;51.410;7.564;2023-04-25T12:30:58;3.83;;;0.88;;
46222;SDS011;31943;51.410;7.564;2023-04-25T12:33:25;3.65;;;1.00;;
46222;SDS011;31943;51.410;7.564;2023-04-25T12:35:52;3.28;;;0.88;;
46222;SDS011;31943;51.410;7.564;2023-04-25T12:38:21;4.18;;;1.00;;
46222;SDS011;31943;51.410;7.564;2023-04-25T12:40:47;4.13;;;0.80;;
46222;SDS011;31943;51.410;7.564;2023-04-25T12:43:14;4.82;;;0.90;;
46222;SDS011;31943;51.410;7.564;2023-04-25T12:45:40;3.00;;;0.73;;
46222;SDS011;31943;51.410;7.564;2023-04-25T12:48:05;3.35;;;0.90;;
46222;SDS011;31943;51.410;7.564;2023-04-25T12:50:31;3.28;;;0.70;;
46222;SDS011;31943;51.410;7.564;2023-04-25T12:52:57;3.15;;;0.60;;
46222;SDS011;31943;51.410;7.564;2023-04-25T12:55:22;4.00;;;1.08;;
46222;SDS011;31943;51.410;7.564;2023-04-25T12:57:48;4.25;;;0.90;;
46222;SDS011;31943;51.410;7.564;2023-04-25T13:00:15;2.72;;;0.80;;
46222;SDS011;31943;51.410;7.564;2023-04-25T13:02:42;2.90;;;0.82;;
46222;SDS011;31943;51.410;7.564;2023-04-25T13:05:07;2.75;;;0.82;;
46222;SDS011;31943;51.410;7.564;2023-04-25T13:07:33;2.70;;;0.90;;
46222;SDS011;31943;51.410;7.564;2023-04-25T13:09:59;4.68;;;1.08;;
46222;SDS011;31943;51.410;7.564;2023-04-25T13:12:25;2.97;;;1.00;;
46222;SDS011;31943;51.410;7.564;2023-04-25T13:14:50;3.25;;;0.80;;
46222;SDS011;31943;51.410;7.564;2023-04-25T13:17:17;2.20;;;1.13;;
46222;SDS011;31943;51.410;7.564;2023-04-25T13:19:43;7.20;;;1.35;;
46222;SDS011;31943;51.410;7.564;2023-04-25T13:22:10;3.03;;;1.00;;
46222;SDS011;31943;51.410;7.564;2023-04-25T13:24:35;4.95;;;1.10;;
46222;SDS011;31943;51.410;7.564;2023-04-25T13:27:01;4.00;;;0.88;;
46222;SDS011;31943;51.410;7.564;2023-04-25T13:29:26;4.25;;;1.10;;
46222;SDS011;31943;51.410;7.564;2023-04-25T13:31:53;6.05;;;1.30;;
46222;SDS011;31943;51.410;7.564;2023-04-25T13:34:20;3.38;;;0.90;;
46222;SDS011;31943;51.410;7.564;2023-04-25T13:36:46;5.25;;;1.20;;
46222;SDS011;31943;51.410;7.564;2023-04-25T13:39:11;5.22;;;1.13;;
46222;SDS011;31943;51.410;7.564;2023-04-25T13:41:37;3.95;;;1.33;;
46222;SDS011;31943;51.410;7.564;2023-04-25T13:44:02;6.30;;;1.35;;
46222;SDS011;31943;51.410;7.564;2023-04-25T13:46:28;5.05;;;0.82;;
46222;SDS011;31943;51.410;7.564;2023-04-25T13:48:54;4.53;;;0.80;;
46222;SDS011;31943;51.410;7.564;2023-04-25T13:51:21;3.17;;;0.90;;
46222;SDS011;31943;51.410;7.564;2023-04-25T13:53:47;2.38;;;0.70;;
46222;SDS011;31943;51.410;7.564;2023-04-25T13:56:12;2.65;;;0.63;;
46222;SDS011;31943;51.410;7.564;2023-04-25T13:58:38;3.92;;;1.02;;
46222;SDS011;31943;51.410;7.564;2023-04-25T14:01:04;2.20;;;0.90;;
46222;SDS011;31943;51.410;7.564;2023-04-25T14:03:30;2.35;;;0.85;;
46222;SDS011;31943;51.410;7.564;2023-04-25T14:05:55;2.40;;;0.70;;
46222;SDS011;31943;51.410;7.564;2023-04-25T14:08:22;2.70;;;1.00;;
46222;SDS011;31943;51.410;7.564;2023-04-25T14:10:48;7.30;;;1.10;;
46222;SDS011;31943;51.410;7.564;2023-04-25T14:13:13;3.13;;;1.00;;
46222;SDS011;31943;51.410;7.564;2023-04-25T14:15:39;4.88;;;0.82;;
46222;SDS011;31943;51.410;7.564;2023-04-25T14:18:05;5.43;;;1.10;;
46222;SDS011;31943;51.410;7.564;2023-04-25T14:20:30;4.80;;;1.20;;
46222;SDS011;31943;51.410;7.564;2023-04-25T14:22:56;3.50;;;1.13;;
46222;SDS011;31943;51.410;7.564;2023-04-25T14:25:24;4.03;;;1.08;;
46222;SDS011;31943;51.410;7.564;2023-04-25T14:27:50;5.30;;;1.23;;
46222;SDS011;31943;51.410;7.564;2023-04-25T14:30:16;4.10;;;1.13;;
46222;SDS011;31943;51.410;7.564;2023-04-25T14:32:42;3.83;;;1.30;;
46222;SDS011;31943;51.410;7.564;2023-04-25T14:35:08;5.00;;;0.85;;